createdAt,value
2022-10-26T00:00:52.056Z,18.56
2022-10-26T00:03:19.171Z,18.56
2022-10-26T00:05:46.102Z,18.55
2022-10-26T00:08:13.108Z,18.54
2022-10-26T00:10:40.027Z,18.54
2022-10-26T00:13:09.263Z,18.53
2022-10-26T00:15:36.186Z,18.53
2022-10-26T00:18:03.108Z,18.52
2022-10-26T00:20:30.083Z,18.48
2022-10-26T00:22:56.976Z,18.48
2022-10-26T00:25:24.089Z,18.48
2022-10-26T00:27:51.576Z,18.47
2022-10-26T00:30:18.749Z,18.48
2022-10-26T00:32:45.651Z,18.47
2022-10-26T00:35:22.865Z,18.47
2022-10-26T00:37:55.574Z,18.47
2022-10-26T00:40:23.171Z,18.46
2022-10-26T00:42:50.276Z,18.45
2022-10-26T00:45:22.050Z,18.45
2022-10-26T00:47:59.341Z,18.45
2022-10-26T00:50:46.914Z,18.43
2022-10-26T00:53:13.811Z,18.43
2022-10-26T00:55:47.693Z,18.41
2022-10-26T00:58:14.604Z,18.39
2022-10-26T01:00:42.226Z,18.37
2022-10-26T01:03:09.495Z,18.35
2022-10-26T01:05:41.769Z,18.35
2022-10-26T01:08:28.302Z,18.36
2022-10-26T01:11:11.478Z,18.36
2022-10-26T01:13:55.029Z,18.35
2022-10-26T01:16:54.948Z,18.35
2022-10-26T01:19:42.843Z,18.35
2022-10-26T01:22:42.545Z,18.33
2022-10-26T01:25:38.459Z,18.32
2022-10-26T01:28:13.217Z,18.32
2022-10-26T01:30:41.039Z,18.29
2022-10-26T01:33:11.036Z,18.29
2022-10-26T01:35:43.918Z,18.28
2022-10-26T01:38:18.716Z,18.27
2022-10-26T01:40:57.075Z,18.24
2022-10-26T01:43:24.072Z,18.23
2022-10-26T01:45:51.131Z,18.22
2022-10-26T01:48:19.032Z,18.22
2022-10-26T01:50:46.901Z,18.22
2022-10-26T01:53:16.713Z,18.22
2022-10-26T01:55:51.232Z,18.20
2022-10-26T01:58:45.899Z,18.21
2022-10-26T02:01:43.091Z,18.20
2022-10-26T02:07:09.643Z,18.19
2022-10-26T02:09:42.190Z,18.19
2022-10-26T02:12:46.182Z,18.19
2022-10-26T02:15:23.776Z,18.18
2022-10-26T02:18:19.216Z,18.18
2022-10-26T02:20:48.922Z,18.15
2022-10-26T02:23:15.900Z,18.14
2022-10-26T02:25:46.636Z,18.13
2022-10-26T02:28:20.087Z,18.14
2022-10-26T02:30:47.075Z,18.13
2022-10-26T02:33:14.176Z,18.12
2022-10-26T02:35:41.743Z,18.13
2022-10-26T02:38:10.798Z,18.12
2022-10-26T02:40:37.797Z,18.12
2022-10-26T02:43:11.400Z,18.11
2022-10-26T02:45:43.225Z,18.11
2022-10-26T02:48:10.120Z,18.11
2022-10-26T02:50:43.516Z,18.11
2022-10-26T02:53:30.581Z,18.10
2022-10-26T02:55:57.519Z,18.10
2022-10-26T02:58:29.456Z,18.10
2022-10-26T03:00:56.390Z,18.10
2022-10-26T03:03:23.342Z,18.07
2022-10-26T03:05:50.277Z,18.06
2022-10-26T03:08:17.813Z,18.07
2022-10-26T03:10:45.735Z,18.07
2022-10-26T03:13:13.246Z,18.07
2022-10-26T03:15:40.198Z,18.07
2022-10-26T03:18:07.236Z,18.08
2022-10-26T03:20:34.189Z,18.05
2022-10-26T03:23:01.211Z,18.05
2022-10-26T03:25:28.232Z,18.06
2022-10-26T03:28:01.737Z,18.06
2022-10-26T03:30:29.112Z,18.07
2022-10-26T03:32:56.005Z,18.06
2022-10-26T03:35:22.982Z,18.06
2022-10-26T03:37:50.367Z,18.06
2022-10-26T03:40:17.486Z,18.05
2022-10-26T03:42:44.453Z,18.04
2022-10-26T03:45:11.415Z,18.02
2022-10-26T03:47:45.699Z,18.01
2022-10-26T03:50:16.167Z,18.02
2022-10-26T03:52:43.120Z,18.03
2022-10-26T03:55:10.619Z,18.03
2022-10-26T03:57:41.974Z,18.03
2022-10-26T04:00:10.596Z,18.02
2022-10-26T04:02:37.528Z,18.01
2022-10-26T04:05:04.885Z,18.00
2022-10-26T04:07:31.844Z,18.00
2022-10-26T04:09:58.769Z,18.01
2022-10-26T04:12:25.926Z,18.02
2022-10-26T04:14:53.016Z,18.05
2022-10-26T04:17:20.054Z,18.06
2022-10-26T04:19:48.046Z,18.06
2022-10-26T04:22:15.064Z,18.08
2022-10-26T04:24:42.253Z,18.05
2022-10-26T04:27:09.150Z,18.02
2022-10-26T04:29:36.090Z,17.99
2022-10-26T04:32:03.143Z,17.99
2022-10-26T04:34:30.046Z,17.99
2022-10-26T04:36:56.988Z,17.98
2022-10-26T04:39:24.137Z,17.97
2022-10-26T04:41:51.057Z,17.96
2022-10-26T04:44:17.952Z,17.96
2022-10-26T04:46:44.922Z,17.96
2022-10-26T04:49:12.585Z,17.94
2022-10-26T04:51:39.525Z,17.93
2022-10-26T04:54:06.465Z,17.93
2022-10-26T04:56:34.386Z,17.93
2022-10-26T04:59:01.516Z,17.93
2022-10-26T05:01:28.541Z,17.93
2022-10-26T05:03:55.641Z,17.88
2022-10-26T05:06:22.747Z,17.91
2022-10-26T05:08:49.708Z,17.91
2022-10-26T05:11:16.806Z,17.90
2022-10-26T05:13:43.719Z,17.90
2022-10-26T05:16:10.646Z,17.90
2022-10-26T05:18:37.570Z,17.90
2022-10-26T05:21:04.572Z,17.91
2022-10-26T05:23:32.887Z,17.90
2022-10-26T05:25:59.967Z,17.89
2022-10-26T05:28:26.879Z,17.89
2022-10-26T05:30:53.804Z,17.89
2022-10-26T05:33:20.709Z,17.88
2022-10-26T05:35:47.878Z,17.88
2022-10-26T05:38:16.279Z,17.87
2022-10-26T05:40:53.536Z,17.86
2022-10-26T05:43:21.415Z,17.87
2022-10-26T05:45:49.853Z,17.84
2022-10-26T05:48:16.898Z,17.83
2022-10-26T05:50:43.788Z,17.82
2022-10-26T05:53:10.750Z,17.81
2022-10-26T05:55:38.049Z,17.81
2022-10-26T05:58:05.257Z,17.82
2022-10-26T06:00:32.514Z,17.82
2022-10-26T06:03:08.406Z,17.82
2022-10-26T06:05:39.379Z,17.82
2022-10-26T06:08:10.838Z,17.81
2022-10-26T06:10:39.234Z,17.80
2022-10-26T06:13:06.454Z,17.80
2022-10-26T06:15:34.046Z,17.80
2022-10-26T06:18:06.668Z,17.79
2022-10-26T06:20:44.828Z,17.77
2022-10-26T06:23:34.778Z,17.78
2022-10-26T06:26:03.268Z,17.78
2022-10-26T06:28:58.367Z,17.78
2022-10-26T06:31:25.270Z,17.77
2022-10-26T06:33:54.101Z,17.75
2022-10-26T06:36:25.457Z,17.77
2022-10-26T06:39:03.987Z,17.78
2022-10-26T06:41:34.882Z,17.79
2022-10-26T06:44:02.945Z,17.78
2022-10-26T06:46:37.892Z,17.78
2022-10-26T06:49:20.220Z,17.78
2022-10-26T06:52:33.346Z,17.77
2022-10-26T06:55:01.059Z,17.78
2022-10-26T06:57:34.521Z,17.79
2022-10-26T07:00:05.421Z,17.80
2022-10-26T07:02:32.520Z,17.79
2022-10-26T07:04:59.599Z,17.80
2022-10-26T07:07:27.912Z,17.82
2022-10-26T07:09:54.915Z,17.82
2022-10-26T07:13:21.671Z,17.80
2022-10-26T07:15:48.723Z,17.80
2022-10-26T07:18:15.655Z,17.81
2022-10-26T07:20:42.786Z,17.83
2022-10-26T07:23:13.012Z,17.83
2022-10-26T07:26:29.768Z,17.82
2022-10-26T07:28:56.688Z,17.83
2022-10-26T07:31:23.693Z,17.84
2022-10-26T07:33:50.619Z,17.87
2022-10-26T07:36:17.556Z,17.87
2022-10-26T07:38:44.466Z,17.88
2022-10-26T07:41:11.411Z,17.90
2022-10-26T07:43:38.320Z,17.89
2022-10-26T07:46:05.407Z,17.90
2022-10-26T07:48:32.345Z,17.90
2022-10-26T07:51:02.971Z,17.90
2022-10-26T07:53:30.300Z,17.90
2022-10-26T07:55:57.544Z,17.90
2022-10-26T07:58:26.375Z,17.91
2022-10-26T08:00:53.578Z,17.91
2022-10-26T08:03:20.889Z,17.92
2022-10-26T08:05:48.370Z,17.93
2022-10-26T08:08:15.293Z,17.93
2022-10-26T08:10:45.538Z,17.92
2022-10-26T08:13:12.681Z,17.94
2022-10-26T08:15:39.687Z,17.94
2022-10-26T08:18:06.778Z,17.94
2022-10-26T08:20:33.782Z,17.95
2022-10-26T08:23:01.564Z,17.95
2022-10-26T08:25:28.593Z,17.95
2022-10-26T08:27:55.639Z,17.95
2022-10-26T08:30:22.629Z,17.95
2022-10-26T08:32:49.919Z,17.96
2022-10-26T08:35:17.110Z,17.96
2022-10-26T08:37:44.060Z,17.97
2022-10-26T08:40:15.168Z,17.98
2022-10-26T08:42:44.689Z,17.98
2022-10-26T08:45:30.519Z,17.98
2022-10-26T08:48:02.059Z,17.98
2022-10-26T08:50:31.843Z,17.99
2022-10-26T08:53:04.108Z,17.97
2022-10-26T08:55:46.543Z,17.99
2022-10-26T08:58:17.982Z,17.97
2022-10-26T09:00:45.480Z,17.99
2022-10-26T09:03:16.369Z,17.99
2022-10-26T09:06:20.721Z,17.98
2022-10-26T09:09:04.144Z,17.99
2022-10-26T09:11:42.200Z,17.98
2022-10-26T09:14:21.127Z,17.97
2022-10-26T09:17:09.087Z,17.99
2022-10-26T09:19:51.366Z,17.99
2022-10-26T09:22:22.827Z,17.98
2022-10-26T09:24:54.025Z,17.98
2022-10-26T09:27:30.181Z,18.00
2022-10-26T09:29:58.243Z,18.00
2022-10-26T09:32:31.637Z,17.97
2022-10-26T09:35:00.745Z,18.00
2022-10-26T09:37:31.479Z,18.01
2022-10-26T09:40:18.684Z,18.01
2022-10-26T09:43:01.825Z,18.01
2022-10-26T09:45:31.848Z,18.01
2022-10-26T09:48:11.848Z,18.01
2022-10-26T09:50:40.008Z,18.02
2022-10-26T09:53:06.962Z,18.01
2022-10-26T09:55:34.323Z,18.01
2022-10-26T09:58:04.499Z,18.02
2022-10-26T10:00:31.731Z,18.02
2022-10-26T10:02:59.063Z,18.02
2022-10-26T10:05:49.653Z,18.03
2022-10-26T10:08:26.974Z,18.04
2022-10-26T10:11:11.489Z,18.04
2022-10-26T10:13:45.558Z,18.04
2022-10-26T10:16:25.378Z,18.04
2022-10-26T10:18:59.385Z,18.05
2022-10-26T10:21:39.882Z,18.05
2022-10-26T10:24:27.168Z,18.06
2022-10-26T10:27:03.973Z,18.06
2022-10-26T10:29:35.322Z,18.07
2022-10-26T10:32:03.312Z,18.08
2022-10-26T10:34:33.617Z,18.08
2022-10-26T10:37:00.975Z,18.10
2022-10-26T10:39:34.720Z,18.11
2022-10-26T10:42:02.391Z,18.11
2022-10-26T10:44:30.315Z,18.13
2022-10-26T10:47:03.863Z,18.14
2022-10-26T10:49:30.917Z,18.15
2022-10-26T10:51:58.032Z,18.17
2022-10-26T10:54:33.375Z,18.18
2022-10-26T10:57:07.745Z,18.19
2022-10-26T11:00:02.317Z,18.20
2022-10-26T11:02:49.246Z,18.21
2022-10-26T11:05:37.450Z,18.22
2022-10-26T11:08:22.706Z,18.22
2022-10-26T11:10:52.800Z,18.23
2022-10-26T11:13:25.483Z,18.24
2022-10-26T11:15:55.796Z,18.25
2022-10-26T11:18:57.014Z,18.28
2022-10-26T11:21:29.132Z,18.29
2022-10-26T11:24:11.255Z,18.29
2022-10-26T11:26:46.584Z,18.31
2022-10-26T11:29:39.491Z,18.32
2022-10-26T11:32:23.339Z,18.34
2022-10-26T11:35:00.304Z,18.33
2022-10-26T11:37:34.778Z,18.35
2022-10-26T11:40:27.679Z,18.36
2022-10-26T11:43:17.531Z,18.37
2022-10-26T11:46:13.867Z,18.38
2022-10-26T11:49:44.805Z,18.40
2022-10-26T11:52:40.757Z,18.43
2022-10-26T11:55:09.552Z,18.43
2022-10-26T11:57:36.953Z,18.46
2022-10-26T12:00:08.840Z,18.46
2022-10-26T12:05:16.593Z,18.50
2022-10-26T12:07:55.245Z,18.50
2022-10-26T12:10:33.337Z,18.53
2022-10-26T12:13:15.338Z,18.55
2022-10-26T12:16:02.915Z,18.56
2022-10-26T12:18:55.866Z,18.57
2022-10-26T12:21:25.594Z,18.58
2022-10-26T12:24:02.853Z,18.58
2022-10-26T12:26:29.705Z,18.59
2022-10-26T12:29:02.502Z,18.60
2022-10-26T12:31:38.403Z,18.60
2022-10-26T12:34:06.372Z,18.62
2022-10-26T12:36:57.904Z,18.63
2022-10-26T12:39:37.191Z,18.65
2022-10-26T12:42:09.948Z,18.65
2022-10-26T12:44:41.451Z,18.66
2022-10-26T12:47:09.371Z,18.68
2022-10-26T12:50:06.911Z,18.68
2022-10-26T12:52:52.713Z,18.68
2022-10-26T12:55:46.012Z,18.68
2022-10-26T12:58:36.008Z,18.70
2022-10-26T13:01:03.661Z,18.73
2022-10-26T13:03:33.342Z,18.76
2022-10-26T13:06:23.673Z,18.76
2022-10-26T13:08:56.232Z,18.80
2022-10-26T13:11:30.760Z,18.82
2022-10-26T13:13:59.128Z,18.86
2022-10-26T13:16:27.232Z,18.87
2022-10-26T13:18:54.167Z,18.89
2022-10-26T13:21:21.444Z,18.92
2022-10-26T13:24:01.907Z,18.94
2022-10-26T13:26:29.845Z,18.97
2022-10-26T13:29:01.427Z,18.98
2022-10-26T13:31:34.675Z,19.01
2022-10-26T13:34:21.445Z,19.02
2022-10-26T13:37:13.354Z,19.05
2022-10-26T13:39:42.385Z,19.05
2022-10-26T13:42:14.249Z,19.06
2022-10-26T13:45:07.053Z,19.07
2022-10-26T13:47:43.905Z,19.08
2022-10-26T13:50:20.999Z,19.08
2022-10-26T13:52:50.000Z,19.09
2022-10-26T13:55:40.108Z,19.10
2022-10-26T13:58:43.280Z,19.11
2022-10-26T14:01:10.559Z,19.12
2022-10-26T14:03:37.812Z,19.11
2022-10-26T14:06:34.836Z,19.12
2022-10-26T14:09:15.055Z,19.12
2022-10-26T14:11:52.470Z,19.13
2022-10-26T14:14:21.811Z,19.14
2022-10-26T14:16:49.699Z,19.13
2022-10-26T14:19:19.081Z,19.13
2022-10-26T14:21:50.202Z,19.13
2022-10-26T14:24:53.079Z,19.14
2022-10-26T14:27:22.559Z,19.15
2022-10-26T14:30:10.152Z,19.15
2022-10-26T14:32:37.914Z,19.14
2022-10-26T14:35:05.120Z,19.14
2022-10-26T14:37:34.744Z,19.15
2022-10-26T14:40:01.676Z,19.14
2022-10-26T14:42:33.279Z,19.13
2022-10-26T14:45:00.254Z,19.15
2022-10-26T14:47:31.527Z,19.15
2022-10-26T14:52:31.161Z,19.15
2022-10-26T14:55:05.686Z,19.14
2022-10-26T14:57:36.583Z,19.13
2022-10-26T15:00:15.714Z,19.12
2022-10-26T15:05:35.776Z,19.11
2022-10-26T15:08:03.533Z,19.11
2022-10-26T15:10:36.479Z,19.11
2022-10-26T15:13:18.245Z,19.10
2022-10-26T15:15:48.556Z,19.09
2022-10-26T15:18:28.945Z,19.08
2022-10-26T15:20:56.403Z,19.07
2022-10-26T15:23:24.063Z,19.05
2022-10-26T15:25:59.079Z,19.05
2022-10-26T15:28:33.030Z,19.05
2022-10-26T15:31:03.610Z,19.04
2022-10-26T15:33:30.759Z,19.03
2022-10-26T15:36:19.934Z,19.03
2022-10-26T15:38:48.329Z,19.01
2022-10-26T15:41:18.754Z,19.01
2022-10-26T15:43:49.089Z,19.00
2022-10-26T15:46:16.046Z,18.98
2022-10-26T15:48:43.059Z,18.99
2022-10-26T15:51:18.932Z,18.98
2022-10-26T15:53:45.872Z,18.98
2022-10-26T15:56:19.978Z,18.96
2022-10-26T15:58:47.240Z,18.96
2022-10-26T16:01:18.664Z,18.92
2022-10-26T16:03:45.945Z,18.64
2022-10-26T16:06:18.270Z,18.42
2022-10-26T16:08:50.673Z,18.38
2022-10-26T16:43:52.781Z,21.59
2022-10-26T16:46:20.947Z,21.55
2022-10-26T16:48:48.804Z,21.43
2022-10-26T16:51:29.339Z,21.16
2022-10-26T16:53:56.824Z,20.84
2022-10-26T16:56:28.181Z,20.60
2022-10-26T16:58:55.343Z,20.40
2022-10-26T17:01:22.414Z,20.27
2022-10-26T17:03:50.455Z,20.15
2022-10-26T17:06:17.587Z,20.07
2022-10-26T17:08:44.489Z,19.95
2022-10-26T17:11:16.305Z,19.87
2022-10-26T17:13:43.272Z,19.79
2022-10-26T17:16:15.476Z,19.72
2022-10-26T17:18:42.679Z,19.66
2022-10-26T17:21:10.341Z,19.61
2022-10-26T17:23:37.444Z,19.56
2022-10-26T17:26:05.639Z,19.53
2022-10-26T17:28:32.820Z,19.49
2022-10-26T17:31:09.817Z,19.46
2022-10-26T17:33:37.412Z,19.42
2022-10-26T17:36:05.351Z,19.38
2022-10-26T17:38:33.269Z,19.36
2022-10-26T17:41:03.698Z,19.34
2022-10-26T17:43:31.812Z,19.32
2022-10-26T17:46:02.122Z,19.30
2022-10-26T17:48:29.702Z,19.24
2022-10-26T17:51:01.414Z,19.25
2022-10-26T17:53:28.544Z,19.23
2022-10-26T17:56:02.954Z,19.21
2022-10-26T17:58:29.892Z,19.20
2022-10-26T18:01:00.104Z,19.17
2022-10-26T18:03:27.037Z,19.14
2022-10-26T18:05:53.995Z,19.13
2022-10-26T18:08:21.101Z,19.11
2022-10-26T18:10:48.856Z,19.09
2022-10-26T18:13:15.921Z,19.07
2022-10-26T18:15:42.825Z,19.05
2022-10-26T18:18:09.802Z,19.03
2022-10-26T18:20:36.743Z,19.01
2022-10-26T18:23:03.749Z,18.99
2022-10-26T18:25:31.594Z,18.97
2022-10-26T18:27:58.559Z,18.95
2022-10-26T18:30:25.663Z,18.95
2022-10-26T18:32:53.375Z,18.93
2022-10-26T18:35:20.579Z,18.92
2022-10-26T18:37:47.839Z,18.92
2022-10-26T18:40:15.173Z,18.91
2022-10-26T18:42:42.489Z,18.89
2022-10-26T18:45:09.943Z,18.88
2022-10-26T18:47:36.887Z,18.87
2022-10-26T18:50:04.823Z,18.85
2022-10-26T18:52:31.811Z,18.84
2022-10-26T18:54:58.713Z,18.82
2022-10-26T18:57:27.217Z,18.80
2022-10-26T18:59:55.094Z,18.80
2022-10-26T19:02:23.239Z,18.78
2022-10-26T19:04:51.815Z,18.77
2022-10-26T19:07:18.713Z,18.76
2022-10-26T19:09:45.706Z,18.75
2022-10-26T19:12:12.604Z,18.73
2022-10-26T19:14:39.576Z,18.71
2022-10-26T19:17:06.579Z,18.70
2022-10-26T19:19:33.522Z,18.69
2022-10-26T19:22:01.242Z,18.68
2022-10-26T19:24:28.282Z,18.67
2022-10-26T19:26:56.762Z,18.66
2022-10-26T19:29:23.726Z,18.64
2022-10-26T19:31:52.246Z,18.63
2022-10-26T19:34:19.440Z,18.61
2022-10-26T19:36:47.408Z,18.61
2022-10-26T19:39:15.662Z,18.59
2022-10-26T19:41:42.979Z,18.58
2022-10-26T19:44:10.719Z,18.59
2022-10-26T19:46:38.298Z,18.57
2022-10-26T19:49:05.407Z,18.56
2022-10-26T19:51:32.600Z,18.55
2022-10-26T19:54:03.550Z,18.55
2022-10-26T19:56:32.213Z,18.54
2022-10-26T19:58:59.146Z,18.52
2022-10-26T20:01:26.158Z,18.52
2022-10-26T20:03:53.145Z,18.52
2022-10-26T20:06:20.171Z,18.50
2022-10-26T20:08:48.100Z,18.49
2022-10-26T20:11:16.438Z,18.48
2022-10-26T20:13:43.880Z,18.47
2022-10-26T20:16:11.074Z,18.47
2022-10-26T20:18:41.177Z,18.46
2022-10-26T20:21:11.551Z,18.45
2022-10-26T20:23:38.556Z,18.44
2022-10-26T20:28:33.518Z,18.44
2022-10-26T20:31:00.458Z,18.43
2022-10-26T20:33:27.711Z,18.42
2022-10-26T20:36:01.028Z,18.41
2022-10-26T20:38:28.305Z,18.40
2022-10-26T20:40:57.096Z,18.38
2022-10-26T20:43:24.959Z,18.38
2022-10-26T20:45:52.298Z,18.37
2022-10-26T20:48:19.495Z,18.37
2022-10-26T20:50:50.243Z,18.36
2022-10-26T20:53:28.778Z,18.36
2022-10-26T20:55:57.509Z,18.35
2022-10-26T20:58:32.963Z,18.34
2022-10-26T21:01:01.132Z,18.33
2022-10-26T21:03:28.151Z,18.32
2022-10-26T21:05:55.082Z,18.32
2022-10-26T21:08:22.344Z,18.32
2022-10-26T21:10:52.489Z,18.31
2022-10-26T21:13:19.453Z,18.31
2022-10-26T21:15:46.383Z,18.29
2022-10-26T21:18:13.370Z,18.29
2022-10-26T21:20:40.321Z,18.27
2022-10-26T21:23:07.231Z,18.27
2022-10-26T21:25:36.699Z,18.27
2022-10-26T21:28:04.005Z,18.26
2022-10-26T21:30:30.898Z,18.26
2022-10-26T21:35:29.646Z,18.24
2022-10-26T21:37:56.917Z,18.23
2022-10-26T21:40:23.969Z,18.23
2022-10-26T21:42:51.833Z,18.22
2022-10-26T21:45:19.100Z,18.22
2022-10-26T21:47:46.114Z,18.22
2022-10-26T21:50:12.993Z,18.21
2022-10-26T21:52:39.958Z,18.20
2022-10-26T21:55:07.112Z,18.21
2022-10-26T21:57:34.602Z,18.21
2022-10-26T22:00:01.559Z,18.19
2022-10-26T22:02:28.533Z,18.19
2022-10-26T22:04:55.550Z,18.18
2022-10-26T22:07:22.506Z,18.17
2022-10-26T22:10:07.657Z,18.16
2022-10-26T22:12:36.359Z,18.16
2022-10-26T22:15:03.328Z,18.15
2022-10-26T22:17:30.222Z,18.16
2022-10-26T22:19:57.103Z,18.15
2022-10-26T22:22:24.028Z,18.14
2022-10-26T22:24:50.991Z,18.14
2022-10-26T22:27:17.885Z,18.13
2022-10-26T22:29:44.839Z,18.13
2022-10-26T22:32:11.737Z,18.13
2022-10-26T22:34:38.681Z,18.13
2022-10-26T22:37:05.625Z,18.12
2022-10-26T22:39:32.643Z,18.11
2022-10-26T22:41:59.581Z,18.11
2022-10-26T22:44:26.524Z,18.11
2022-10-26T22:46:53.456Z,18.10
2022-10-26T22:49:20.397Z,18.09
2022-10-26T22:51:47.354Z,18.07
2022-10-26T22:54:14.421Z,18.08
2022-10-26T22:56:41.389Z,18.07
2022-10-26T22:59:08.399Z,18.07
2022-10-26T23:01:39.350Z,18.06
2022-10-26T23:04:06.344Z,18.07
2022-10-26T23:06:33.474Z,18.06
2022-10-26T23:09:00.355Z,18.05
2022-10-26T23:11:28.257Z,18.04
2022-10-26T23:13:56.008Z,18.05
2022-10-26T23:16:23.390Z,18.03
2022-10-26T23:18:50.463Z,18.02
2022-10-26T23:21:17.649Z,18.01
2022-10-26T23:23:44.952Z,18.03
2022-10-26T23:26:23.618Z,18.03
2022-10-26T23:28:50.649Z,18.02
2022-10-26T23:31:25.865Z,18.02
2022-10-26T23:33:53.713Z,18.01
2022-10-26T23:36:20.718Z,18.00
2022-10-26T23:38:48.032Z,18.00
2022-10-26T23:41:14.989Z,17.99
2022-10-26T23:43:42.014Z,17.98
2022-10-26T23:46:09.037Z,17.97
2022-10-26T23:48:36.032Z,17.97
2022-10-26T23:51:03.001Z,17.98
2022-10-26T23:53:29.990Z,17.97
2022-10-26T23:55:56.890Z,17.97
2022-10-26T23:58:23.845Z,17.96
